Welkom op de website van Weerstation Hoek van Holland.
Het weer levert geen direct gevaar op.    Er zijn geen waarschuwingen afgegeven.

Onweer radar Meer informatie blitzortung!


Regen radar Meer informatie rain snow radar



METAR rapporten vliegvelden

   
EHRD - Rotterdam International Airport, NL
Afstand tot: Oost 31 km
Gewijzigd: 24-10-2018 00:55
Bewolking  
Bewolking  
   Wind: WNW 25.9 km/h
Wind: WNW 25.9 km/h
Temperatuur: 14°C
Dauwpunt: 12°C
Vochtigheid: 88%
Barometer: 1023 hPa
Bewolking: Overcast
Zicht: meer dan 10 km
Bewolking: Grotendeels bewolkt 1300 ft,
Bewolking 1500 ft
EHRD 232255Z AUTO 29014KT 250V340 9999 BKN013 OVC015 14/12 Q1023 NOSIG
EHAM - Amsterdam Schiphol, NL
Afstand tot: Noord 17 km
Gewijzigd: 24-10-2018 00:55
Bewolking  
Bewolking  
   Wind: WNW 37 km/h
Wind: WNW 37 km/h
Temperatuur: 15°C
Dauwpunt: 12°C
Vochtigheid: 82%
Barometer: 1022 hPa
Bewolking: Overcast
Zicht: meer dan 10 km
Bewolking: Bewolking 1400 ft
EHAM 232255Z 29020KT 260V320 9999 OVC014 15/12 Q1022 TEMPO SCT015
EBAW - Antwerpen/Deurne, B
Afstand tot: Zuid 138 km
Gewijzigd: 24-10-2018 00:50
Bewolking  
Bewolking  
   Wind: Westen 16.7 km/h
Wind: Westen 16.7 km/h
Temperatuur: 14°C
Dauwpunt: 10°C
Vochtigheid: 77%
Barometer: 1025 hPa
Bewolking: Overcast
Zicht: meer dan 10 km
Bewolking: Bewolking 1300 ft
EBAW 232250Z AUTO 28009KT 9999 // OVC013/// 14/10 Q1025
EHEH - Eindhoven, NL
Afstand tot: OZO 140 km
Gewijzigd: 24-10-2018 00:55
Bewolking  
Bewolking  
   Wind: Westen 24.1 km/h
Wind: Westen 24.1 km/h
Temperatuur: 14°C
Dauwpunt: 11°C
Vochtigheid: 82%
Barometer: 1023 hPa
Bewolking: Overcast
Zicht: meer dan 10 km
Bewolking: Licht bewolkt 1300 ft,
Grotendeels bewolkt 1500 ft,
Bewolking 2000 ft
EHEH 232255Z AUTO 27013KT 230V310 9999 FEW013 BKN015 OVC020 14/11 Q1023 WHT
  

Script ontwikkeld door  Saratoga-weather.org Aangepast voor de template door  Weerstation Leuven

Apparatuur in gebruik:

Weerstation
Davis VP2

Weerprogramma
Meteobridge

Weercomputer
meteobridge met meteostick

Webleverancier
Strato

Davis VP2

Meteobridge

meteobridge met meteostick

Strato